createdAt,value
2019-06-20T00:00:01.449Z,96246.44
2019-06-20T00:02:32.724Z,96260.37
2019-06-20T00:05:03.979Z,96271.64
2019-06-20T00:07:36.279Z,96282.81
2019-06-20T00:10:08.554Z,96281.77
2019-06-20T00:12:39.655Z,96280.72
2019-06-20T00:15:10.866Z,96278.84
2019-06-20T00:17:41.964Z,96274.13
2019-06-20T00:20:13.223Z,96276.80
2019-06-20T00:22:45.305Z,96273.11
2019-06-20T00:25:16.466Z,96267.19
2019-06-20T00:27:47.538Z,96263.45
2019-06-20T00:30:18.955Z,96258.36
2019-06-20T00:32:50.187Z,96263.45
2019-06-20T00:35:21.477Z,96269.06
2019-06-20T00:37:52.787Z,96259.14
2019-06-20T00:40:24.014Z,96253.03
2019-06-20T00:42:55.281Z,96250.39
2019-06-20T00:45:27.463Z,96244.27
2019-06-20T00:47:58.540Z,96254.45
2019-06-20T00:50:29.603Z,96250.73
2019-06-20T00:53:00.724Z,96254.47
2019-06-20T00:55:32.022Z,96256.86
2019-06-20T00:58:03.237Z,96262.75
2019-06-20T01:00:34.297Z,96265.96
2019-06-20T01:03:05.503Z,96269.97
2019-06-20T01:05:36.710Z,96270.81
2019-06-20T01:08:08.014Z,96271.88
2019-06-20T01:10:39.219Z,96279.86
2019-06-20T01:13:10.313Z,96272.38
2019-06-20T01:15:41.588Z,96266.78
2019-06-20T01:18:12.828Z,96263.33
2019-06-20T01:20:44.031Z,96268.66
2019-06-20T01:23:15.637Z,96265.96
2019-06-20T01:25:47.044Z,96267.27
2019-06-20T01:28:18.203Z,96279.28
2019-06-20T01:30:49.641Z,96282.27
2019-06-20T01:33:20.802Z,96299.34
2019-06-20T01:35:52.890Z,96299.59
2019-06-20T01:38:24.038Z,96295.38
2019-06-20T01:40:55.055Z,96290.31
2019-06-20T01:43:26.172Z,96283.89
2019-06-20T01:45:57.199Z,96292.47
2019-06-20T01:48:28.302Z,96308.72
2019-06-20T01:51:00.396Z,96300.21
2019-06-20T01:53:31.495Z,96295.63
2019-06-20T01:56:02.815Z,96295.91
2019-06-20T01:58:33.871Z,96291.64
2019-06-20T02:01:05.312Z,96290.03
2019-06-20T02:03:36.498Z,96288.75
2019-06-20T02:06:07.654Z,96287.13
2019-06-20T02:08:38.722Z,96295.42
2019-06-20T02:11:10.122Z,96289.30
2019-06-20T02:13:41.270Z,96288.21
2019-06-20T02:16:12.587Z,96279.66
2019-06-20T02:18:43.734Z,96285.53
2019-06-20T02:21:15.939Z,96285.59
2019-06-20T02:23:47.155Z,96274.34
2019-06-20T02:26:18.421Z,96281.03
2019-06-20T02:28:49.735Z,96277.81
2019-06-20T02:31:21.204Z,96286.38
2019-06-20T02:33:52.968Z,96289.31
2019-06-20T02:36:24.109Z,96295.20
2019-06-20T02:38:55.260Z,96297.09
2019-06-20T02:41:26.444Z,96299.22
2019-06-20T02:43:57.516Z,96302.42
2019-06-20T02:46:28.692Z,96300.53
2019-06-20T02:48:59.804Z,96301.33
2019-06-20T02:51:31.637Z,96302.41
2019-06-20T02:54:02.985Z,96294.95
2019-06-20T02:56:34.076Z,96297.90
2019-06-20T02:59:05.275Z,96298.41
2019-06-20T03:01:36.358Z,96305.37
2019-06-20T03:04:07.477Z,96304.30
2019-06-20T03:06:38.706Z,96297.35
2019-06-20T03:09:10.380Z,96306.17
2019-06-20T03:11:41.443Z,96313.92
2019-06-20T03:14:12.694Z,96322.97
2019-06-20T03:16:43.850Z,96324.06
2019-06-20T03:19:14.937Z,96323.25
2019-06-20T03:21:46.046Z,96325.69
2019-06-20T03:24:17.073Z,96325.66
2019-06-20T03:26:48.507Z,96332.08
2019-06-20T03:29:19.615Z,96330.19
2019-06-20T03:31:50.721Z,96332.88
2019-06-20T03:34:22.061Z,96339.30
2019-06-20T03:36:53.219Z,96341.67
2019-06-20T03:39:24.362Z,96349.95
2019-06-20T03:41:56.084Z,96352.34
2019-06-20T03:44:27.305Z,96359.01
2019-06-20T03:46:58.391Z,96364.90
2019-06-20T03:49:29.423Z,96375.83
2019-06-20T03:52:00.477Z,96381.97
2019-06-20T03:54:31.502Z,96385.16
2019-06-20T03:57:02.601Z,96378.76
2019-06-20T03:59:33.618Z,96377.41
2019-06-20T04:02:04.758Z,96384.34
2019-06-20T04:04:35.813Z,96387.05
2019-06-20T04:07:07.938Z,96390.22
2019-06-20T04:09:39.100Z,96396.89
2019-06-20T04:12:10.210Z,96389.95
2019-06-20T04:14:41.368Z,96387.55
2019-06-20T04:17:12.428Z,96390.22
2019-06-20T04:23:30.176Z,96370.21
2019-06-20T04:26:01.276Z,96369.70
2019-06-20T04:28:32.303Z,96355.56
2019-06-20T04:31:03.344Z,96353.15
2019-06-20T04:33:34.422Z,96347.02
2019-06-20T04:36:05.642Z,96346.76
2019-06-20T04:38:37.548Z,96340.60
2019-06-20T04:41:08.685Z,96330.73
2019-06-20T04:43:39.784Z,96343.81
2019-06-20T04:46:20.572Z,96336.63
2019-06-20T04:48:51.628Z,96333.94
2019-06-20T04:51:22.693Z,96318.47
2019-06-20T04:53:53.687Z,96325.39
2019-06-20T04:56:24.816Z,96323.00
2019-06-20T04:58:55.855Z,96341.41
2019-06-20T05:01:26.928Z,96347.81
2019-06-20T05:03:59.017Z,96350.20
2019-06-20T05:06:30.146Z,96353.95
2019-06-20T05:09:01.168Z,96339.27
2019-06-20T05:11:33.889Z,96341.68
2019-06-20T05:14:05.220Z,96353.42
2019-06-20T05:16:36.350Z,96353.67
2019-06-20T05:19:08.621Z,96350.48
2019-06-20T05:21:40.621Z,96353.16
2019-06-20T05:24:11.764Z,96347.81
2019-06-20T05:26:42.879Z,96356.63
2019-06-20T05:29:14.017Z,96349.41
2019-06-20T05:31:45.077Z,96355.82
2019-06-20T05:34:16.275Z,96355.56
2019-06-20T05:36:47.338Z,96351.01
2019-06-20T05:39:18.365Z,96348.61
2019-06-20T05:41:50.424Z,96360.07
2019-06-20T05:44:21.515Z,96359.80
2019-06-20T05:47:08.522Z,96356.34
2019-06-20T05:49:26.043Z,96349.67
2019-06-20T05:51:57.205Z,96359.56
2019-06-20T05:54:28.197Z,96355.80
2019-06-20T05:57:03.186Z,96353.94
2019-06-20T05:59:32.149Z,96356.87
2019-06-20T06:02:03.327Z,96355.81
2019-06-20T06:04:34.592Z,96356.61
2019-06-20T06:07:06.201Z,96360.09
2019-06-20T06:09:38.290Z,96355.01
2019-06-20T06:12:09.818Z,96346.98
2019-06-20T06:14:40.995Z,96345.13
2019-06-20T06:17:12.278Z,96352.30
2019-06-20T06:19:43.335Z,96352.30
2019-06-20T06:22:14.400Z,96352.28
2019-06-20T06:24:45.542Z,96356.27
2019-06-20T06:27:17.723Z,96359.45
2019-06-20T06:29:49.732Z,96355.48
2019-06-20T06:32:20.899Z,96359.45
2019-06-20T06:34:52.078Z,96361.28
2019-06-20T06:37:23.196Z,96355.67
2019-06-20T06:39:54.288Z,96356.73
2019-06-20T06:42:25.521Z,96358.59
2019-06-20T06:44:56.805Z,96356.41
2019-06-20T06:47:27.829Z,96354.02
2019-06-20T06:49:59.822Z,96352.39
2019-06-20T06:52:31.036Z,96348.91
2019-06-20T06:55:02.204Z,96351.55
2019-06-20T06:57:33.227Z,96351.26
2019-06-20T07:00:04.677Z,96353.64
2019-06-20T07:02:35.817Z,96357.94
2019-06-20T07:05:07.524Z,96361.64
2019-06-20T07:07:39.954Z,96358.37
2019-06-20T07:10:11.895Z,96362.64
2019-06-20T07:12:43.122Z,96355.66
2019-06-20T07:15:15.161Z,96359.36
2019-06-20T07:17:46.458Z,96365.42
2019-06-20T07:20:18.149Z,96357.56
2019-06-20T07:22:49.351Z,96358.51
2019-06-20T07:25:22.309Z,96361.42
2019-06-20T07:27:53.660Z,96365.96
2019-06-20T07:30:25.244Z,96366.80
2019-06-20T07:32:56.384Z,96364.65
2019-06-20T07:35:27.620Z,96367.00
2019-06-20T07:37:58.801Z,96373.65
2019-06-20T07:40:29.984Z,96370.67
2019-06-20T07:43:01.058Z,96372.77
2019-06-20T07:45:32.329Z,96371.45
2019-06-20T07:48:03.356Z,96371.22
2019-06-20T07:50:34.435Z,96375.23
2019-06-20T07:53:06.094Z,96372.53
2019-06-20T07:55:37.091Z,96375.80
2019-06-20T07:58:08.187Z,96376.33
2019-06-20T08:00:39.406Z,96372.56
2019-06-20T08:03:10.524Z,96371.50
2019-06-20T08:05:41.718Z,96370.16
2019-06-20T08:08:12.772Z,96369.36
2019-06-20T08:10:45.443Z,96370.14
2019-06-20T08:13:16.587Z,96369.08
2019-06-20T08:15:47.763Z,96372.80
2019-06-20T08:18:19.227Z,96372.71
2019-06-20T08:20:50.429Z,96373.97
2019-06-20T08:23:21.555Z,96375.70
2019-06-20T08:25:53.936Z,96375.30
2019-06-20T08:28:26.248Z,96381.31
2019-06-20T08:30:58.892Z,96376.94
2019-06-20T08:33:30.101Z,96382.80
2019-06-20T08:36:02.321Z,96383.58
2019-06-20T08:38:33.368Z,96381.98
2019-06-20T08:41:04.857Z,96385.69
2019-06-20T08:43:37.319Z,96380.58
2019-06-20T08:46:10.467Z,96382.38
2019-06-20T08:48:41.650Z,96379.63
2019-06-20T08:51:14.698Z,96379.94
2019-06-20T08:53:45.571Z,96373.20
2019-06-20T08:56:16.868Z,96375.17
2019-06-20T08:58:47.919Z,96376.69
2019-06-20T09:01:19.358Z,96376.92
2019-06-20T09:03:50.824Z,96378.20
2019-06-20T09:06:22.769Z,96369.38
2019-06-20T09:08:55.454Z,96367.63
2019-06-20T09:11:26.865Z,96374.75
2019-06-20T09:13:59.018Z,96372.91
2019-06-20T09:16:30.360Z,96372.61
2019-06-20T09:19:02.612Z,96379.80
2019-06-20T09:21:33.824Z,96369.59
2019-06-20T09:24:05.143Z,96368.17
2019-06-20T09:26:37.177Z,96373.00
2019-06-20T09:29:08.279Z,96367.06
2019-06-20T09:31:39.427Z,96372.42
2019-06-20T09:34:10.527Z,96380.19
2019-06-20T09:36:41.673Z,96377.95
2019-06-20T09:39:12.901Z,96374.31
2019-06-20T09:41:44.013Z,96382.17
2019-06-20T09:44:15.472Z,96376.61
2019-06-20T09:46:46.526Z,96381.53
2019-06-20T09:49:17.763Z,96387.95
2019-06-20T09:51:50.266Z,96393.27
2019-06-20T09:54:21.476Z,96383.63
2019-06-20T09:56:55.397Z,96388.51
2019-06-20T09:59:27.992Z,96402.91
2019-06-20T10:02:00.349Z,96403.80
2019-06-20T10:04:31.643Z,96402.83
2019-06-20T10:07:03.931Z,96404.03
2019-06-20T10:09:35.056Z,96397.33
2019-06-20T10:12:06.271Z,96387.45
2019-06-20T10:14:37.335Z,96389.36
2019-06-20T10:17:08.527Z,96385.58
2019-06-20T10:19:39.829Z,96383.67
2019-06-20T10:22:11.098Z,96376.12
2019-06-20T10:24:42.155Z,96369.62
2019-06-20T10:27:13.533Z,96370.83
2019-06-20T10:29:46.196Z,96370.83
2019-06-20T10:32:17.782Z,96373.76
2019-06-20T10:34:48.978Z,96373.19
2019-06-20T10:37:20.380Z,96375.63
2019-06-20T10:39:52.092Z,96383.43
2019-06-20T10:42:23.406Z,96383.47
2019-06-20T10:44:54.500Z,96385.38
2019-06-20T10:47:32.610Z,96378.95
2019-06-20T10:49:59.655Z,96371.75
2019-06-20T10:52:30.840Z,96370.48
2019-06-20T10:55:01.972Z,96379.27
2019-06-20T10:57:33.178Z,96377.92
2019-06-20T11:00:07.402Z,96375.28
2019-06-20T11:02:38.562Z,96376.91
2019-06-20T11:05:10.092Z,96373.09
2019-06-20T11:07:42.470Z,96374.08
2019-06-20T11:10:14.930Z,96372.62
2019-06-20T11:12:52.402Z,96375.83
2019-06-20T11:15:21.375Z,96380.71
2019-06-20T11:17:55.954Z,96369.23
2019-06-20T11:20:25.497Z,96363.72
2019-06-20T11:22:56.700Z,96386.72
2019-06-20T11:25:28.068Z,96382.77
2019-06-20T11:27:59.227Z,96380.61
2019-06-20T11:30:45.039Z,96370.91
2019-06-20T11:33:05.866Z,96379.23
2019-06-20T11:35:37.777Z,96371.28
2019-06-20T11:38:09.216Z,96371.23
2019-06-20T11:40:41.565Z,96370.50
2019-06-20T11:43:12.739Z,96370.55
2019-06-20T11:45:43.872Z,96373.72
2019-06-20T11:48:15.000Z,96366.89
2019-06-20T11:50:46.518Z,96370.11
2019-06-20T11:53:18.199Z,96374.20
2019-06-20T11:55:49.580Z,96368.48
2019-06-20T11:58:23.427Z,96368.23
2019-06-20T12:01:03.473Z,96365.76
2019-06-20T12:03:27.346Z,96371.38
2019-06-20T12:05:58.423Z,96372.98
2019-06-20T12:08:30.638Z,96370.70
2019-06-20T12:11:01.902Z,96361.23
2019-06-20T12:13:34.310Z,96355.68
2019-06-20T12:16:06.888Z,96356.05
2019-06-20T12:18:39.912Z,96355.25
2019-06-20T12:21:11.325Z,96350.69
2019-06-20T12:23:42.618Z,96354.88
2019-06-20T12:26:13.831Z,96351.94
2019-06-20T12:28:46.619Z,96355.92
2019-06-20T12:31:19.857Z,96345.14
2019-06-20T12:33:50.675Z,96355.20
2019-06-20T12:36:21.903Z,96356.02
2019-06-20T12:38:53.042Z,96365.61
2019-06-20T12:41:24.096Z,96369.52
2019-06-20T12:43:55.253Z,96364.58
2019-06-20T12:46:26.290Z,96378.64
2019-06-20T12:48:57.348Z,96388.28
2019-06-20T12:51:28.456Z,96388.69
2019-06-20T12:53:59.591Z,96365.87
2019-06-20T12:56:30.676Z,96368.43
2019-06-20T12:59:01.729Z,96357.01
2019-06-20T13:01:38.916Z,96358.91
2019-06-20T13:04:06.000Z,96365.16
2019-06-20T13:06:37.702Z,96354.44
2019-06-20T13:09:10.363Z,96355.78
2019-06-20T13:11:42.637Z,96359.23
2019-06-20T13:14:13.919Z,96360.44
2019-06-20T13:16:46.031Z,96355.64
2019-06-20T13:19:17.205Z,96365.59
2019-06-20T13:21:48.595Z,96369.08
2019-06-20T13:24:19.801Z,96368.76
2019-06-20T13:26:50.854Z,96360.13
2019-06-20T13:29:23.107Z,96353.34
2019-06-20T13:32:03.929Z,96367.88
2019-06-20T13:34:27.564Z,96365.77
2019-06-20T13:36:58.757Z,96367.34
2019-06-20T13:39:29.812Z,96365.44
2019-06-20T13:42:01.156Z,96358.46
2019-06-20T13:44:33.136Z,96359.84
2019-06-20T13:47:04.234Z,96350.73
2019-06-20T13:49:35.267Z,96350.03
2019-06-20T13:52:06.365Z,96356.91
2019-06-20T13:54:37.385Z,96352.55
2019-06-20T13:57:08.495Z,96351.40
2019-06-20T13:59:40.265Z,96352.40
2019-06-20T14:02:12.587Z,96352.98
2019-06-20T14:04:44.484Z,96352.23
2019-06-20T14:07:15.510Z,96351.90
2019-06-20T14:09:48.482Z,96361.86
2019-06-20T14:12:19.804Z,96366.02
2019-06-20T14:14:52.172Z,96364.73
2019-06-20T14:17:23.417Z,96362.24
2019-06-20T14:19:56.540Z,96367.79
2019-06-20T14:22:27.774Z,96369.16
2019-06-20T14:24:58.970Z,96366.70
2019-06-20T14:27:30.407Z,96373.18
2019-06-20T14:30:01.962Z,96369.06
2019-06-20T14:32:33.932Z,96357.53
2019-06-20T14:35:05.175Z,96352.24
2019-06-20T14:37:36.297Z,96363.73
2019-06-20T14:40:07.608Z,96361.52
2019-06-20T14:42:38.800Z,96360.03
2019-06-20T14:45:10.232Z,96352.24
2019-06-20T14:47:41.303Z,96351.89
2019-06-20T14:50:13.324Z,96352.39
2019-06-20T14:52:47.732Z,96345.73
2019-06-20T14:55:18.988Z,96343.20
2019-06-20T14:57:50.546Z,96346.40
2019-06-20T15:00:22.582Z,96347.31
2019-06-20T15:02:58.077Z,96352.15
2019-06-20T15:05:26.474Z,96350.59
2019-06-20T15:07:57.572Z,96342.77
2019-06-20T15:10:28.663Z,96345.09
2019-06-20T15:12:59.822Z,96341.50
2019-06-20T15:15:31.687Z,96343.93
2019-06-20T15:18:02.804Z,96345.98
2019-06-20T15:20:33.922Z,96347.77
2019-06-20T15:23:05.026Z,96343.50
2019-06-20T15:25:36.110Z,96344.56
2019-06-20T15:28:07.718Z,96360.86
2019-06-20T15:30:38.837Z,96359.84
2019-06-20T15:33:10.667Z,96350.24
2019-06-20T15:35:45.103Z,96348.09
2019-06-20T15:38:16.185Z,96348.62
2019-06-20T15:40:48.439Z,96350.80
2019-06-20T15:43:20.154Z,96365.02
2019-06-20T15:45:52.078Z,96361.78
2019-06-20T15:48:23.274Z,96360.13
2019-06-20T15:50:55.205Z,96353.52
2019-06-20T15:53:26.256Z,96358.31
2019-06-20T15:55:57.443Z,96359.38
2019-06-20T15:58:28.465Z,96367.31
2019-06-20T16:00:59.512Z,96363.58
2019-06-20T16:03:30.550Z,96368.16
2019-06-20T16:06:01.623Z,96359.59
2019-06-20T16:08:32.675Z,96354.79
2019-06-20T16:11:03.912Z,96366.78
2019-06-20T16:13:35.041Z,96364.34
2019-06-20T16:16:06.286Z,96370.24
2019-06-20T16:18:38.315Z,96369.14
2019-06-20T16:21:09.418Z,96360.58
2019-06-20T16:23:40.607Z,96353.48
2019-06-20T16:26:11.639Z,96359.88
2019-06-20T16:28:42.684Z,96366.58
2019-06-20T16:31:26.302Z,96369.75
2019-06-20T16:33:46.599Z,96371.30
2019-06-20T16:36:17.661Z,96365.66
2019-06-20T16:38:48.778Z,96361.34
2019-06-20T16:41:19.923Z,96361.59
2019-06-20T16:43:50.958Z,96358.38
2019-06-20T16:46:21.984Z,96360.30
2019-06-20T16:48:53.089Z,96356.52
2019-06-20T16:51:24.193Z,96359.48
2019-06-20T16:53:55.397Z,96359.48
2019-06-20T16:56:27.653Z,96369.36
2019-06-20T16:58:59.770Z,96368.05
2019-06-20T17:01:30.842Z,96369.43
2019-06-20T17:04:02.158Z,96372.67
2019-06-20T17:06:33.263Z,96373.73
2019-06-20T17:09:06.955Z,96385.55
2019-06-20T17:11:38.439Z,96390.95
2019-06-20T17:14:09.817Z,96396.87
2019-06-20T17:16:41.059Z,96400.05
2019-06-20T17:19:12.196Z,96407.53
2019-06-20T17:21:43.358Z,96402.13
2019-06-20T17:24:15.336Z,96407.74
2019-06-20T17:26:46.348Z,96408.34
2019-06-20T17:29:17.398Z,96414.70
2019-06-20T17:31:48.751Z,96418.57
2019-06-20T17:34:19.789Z,96419.14
2019-06-20T17:36:50.880Z,96421.31
2019-06-20T17:39:22.010Z,96424.78
2019-06-20T17:41:55.442Z,96423.47
2019-06-20T17:44:27.533Z,96428.05
2019-06-20T17:46:58.903Z,96425.69
2019-06-20T17:49:29.906Z,96424.63
2019-06-20T17:52:00.991Z,96425.41
2019-06-20T17:54:32.617Z,96432.11
2019-06-20T17:57:03.798Z,96427.27
2019-06-20T17:59:34.790Z,96419.77
2019-06-20T18:02:05.842Z,96418.11
2019-06-20T18:04:36.918Z,96420.27
2019-06-20T18:07:08.141Z,96423.72
2019-06-20T18:09:39.194Z,96424.53
2019-06-20T18:12:12.151Z,96431.48
2019-06-20T18:14:44.171Z,96424.03
2019-06-20T18:17:15.319Z,96433.41
2019-06-20T18:19:46.435Z,96431.23
2019-06-20T18:22:17.577Z,96432.85
2019-06-20T18:24:48.742Z,96435.31
2019-06-20T18:27:19.922Z,96440.15
2019-06-20T18:29:50.969Z,96442.30
2019-06-20T18:32:22.096Z,96442.08
2019-06-20T18:35:01.756Z,96445.57
2019-06-20T18:37:31.379Z,96447.47
2019-06-20T18:39:59.481Z,96454.17
2019-06-20T18:42:30.540Z,96452.08
2019-06-20T18:45:01.718Z,96448.92
2019-06-20T18:47:32.720Z,96452.66
2019-06-20T18:50:05.517Z,96447.58
2019-06-20T18:52:51.038Z,96445.44
2019-06-20T18:55:10.132Z,96455.14
2019-06-20T18:57:41.224Z,96447.64
2019-06-20T19:00:13.314Z,96463.21
2019-06-20T19:02:44.415Z,96464.83
2019-06-20T19:05:15.699Z,96471.28
2019-06-20T19:07:46.832Z,96470.74
2019-06-20T19:10:22.981Z,96468.34
2019-06-20T19:12:54.091Z,96465.94
2019-06-20T19:15:26.071Z,96463.84
2019-06-20T19:17:57.630Z,96470.03
2019-06-20T19:20:28.776Z,96466.31
2019-06-20T19:23:00.158Z,96474.33
2019-06-20T19:25:31.297Z,96476.50
2019-06-20T19:28:02.457Z,96487.72
2019-06-20T19:30:48.326Z,96494.97
2019-06-20T19:33:19.760Z,96496.86
2019-06-20T19:35:55.054Z,96502.27
2019-06-20T19:38:26.121Z,96509.23
2019-06-20T19:40:58.224Z,96505.81
2019-06-20T19:43:29.635Z,96518.95
2019-06-20T19:46:00.750Z,96519.76
2019-06-20T19:48:32.305Z,96524.08
2019-06-20T19:51:03.753Z,96532.12
2019-06-20T19:53:35.893Z,96529.98
2019-06-20T19:56:07.179Z,96528.66
2019-06-20T19:58:38.777Z,96533.73
2019-06-20T20:01:09.984Z,96536.97
2019-06-20T20:03:41.171Z,96538.02
2019-06-20T20:06:12.290Z,96538.36
2019-06-20T20:08:43.560Z,96538.58
2019-06-20T20:11:14.602Z,96533.78
2019-06-20T20:13:45.821Z,96541.55
2019-06-20T20:16:17.067Z,96544.23
2019-06-20T20:18:48.322Z,96547.27
2019-06-20T20:21:19.378Z,96549.41
2019-06-20T20:23:50.512Z,96549.15
2019-06-20T20:26:21.581Z,96547.00
2019-06-20T20:28:52.754Z,96551.05
2019-06-20T20:31:24.070Z,96548.92
2019-06-20T20:33:55.941Z,96551.85
2019-06-20T20:36:27.169Z,96557.23
2019-06-20T20:38:58.228Z,96565.53
2019-06-20T20:41:29.289Z,96567.48
2019-06-20T20:44:00.300Z,96569.61
2019-06-20T20:46:31.349Z,96566.66
2019-06-20T20:49:02.354Z,96571.19
2019-06-20T20:51:33.446Z,96567.44
2019-06-20T20:54:04.531Z,96566.67
2019-06-20T20:56:35.691Z,96559.17
2019-06-20T20:59:06.820Z,96564.25
2019-06-20T21:01:39.019Z,96569.33
2019-06-20T21:04:10.066Z,96568.83
2019-06-20T21:06:41.092Z,96573.88
2019-06-20T21:09:12.255Z,96582.19
2019-06-20T21:11:43.348Z,96590.48
2019-06-20T21:14:14.369Z,96606.25
2019-06-20T21:16:45.416Z,96610.52
2019-06-20T21:19:16.534Z,96618.02
2019-06-20T21:21:48.058Z,96626.30
2019-06-20T21:24:19.121Z,96615.08
2019-06-20T21:26:50.373Z,96621.50
2019-06-20T21:29:21.486Z,96622.83
2019-06-20T21:31:52.534Z,96624.45
2019-06-20T21:34:23.586Z,96626.04
2019-06-20T21:41:01.571Z,96632.44
2019-06-20T21:43:32.884Z,96631.90
2019-06-20T21:46:06.761Z,96631.38
2019-06-20T21:48:37.084Z,96634.56
2019-06-20T21:51:09.100Z,96635.64
2019-06-20T21:53:40.483Z,96642.32
2019-06-20T21:56:11.547Z,96641.25
2019-06-20T21:58:42.649Z,96637.80
2019-06-20T22:01:14.601Z,96640.17
2019-06-20T22:03:45.989Z,96644.18
2019-06-20T22:06:23.908Z,96646.03
2019-06-20T22:08:49.909Z,96651.12
2019-06-20T22:11:21.130Z,96654.02
2019-06-20T22:13:52.294Z,96646.78
2019-06-20T22:16:23.452Z,96644.67
2019-06-20T22:18:54.594Z,96653.20
2019-06-20T22:21:25.786Z,96651.09
2019-06-20T22:23:57.153Z,96646.48
2019-06-20T22:26:28.228Z,96646.52
2019-06-20T22:28:59.263Z,96641.19
2019-06-20T22:31:30.460Z,96641.44
2019-06-20T22:34:01.516Z,96641.97
2019-06-20T22:36:40.280Z,96641.44
2019-06-20T22:39:07.957Z,96650.23
2019-06-20T22:41:39.373Z,96652.90
2019-06-20T22:44:10.540Z,96643.03
2019-06-20T22:46:41.577Z,96644.08
2019-06-20T22:49:12.610Z,96653.72
2019-06-20T22:51:43.636Z,96655.57
2019-06-20T22:54:14.636Z,96651.56
2019-06-20T22:56:45.756Z,96653.16
2019-06-20T22:59:17.061Z,96662.50
2019-06-20T23:01:48.081Z,96657.16
2019-06-20T23:04:19.130Z,96658.76
2019-06-20T23:06:56.474Z,96659.83
2019-06-20T23:09:22.973Z,96663.58
2019-06-20T23:11:54.037Z,96667.06
2019-06-20T23:14:26.125Z,96671.07
2019-06-20T23:16:57.258Z,96665.98
2019-06-20T23:19:28.306Z,96669.98
2019-06-20T23:21:59.516Z,96675.59
2019-06-20T23:24:30.561Z,96677.45
2019-06-20T23:27:01.580Z,96673.19
2019-06-20T23:29:32.583Z,96673.98
2019-06-20T23:32:03.969Z,96675.84
2019-06-20T23:34:35.022Z,96673.44
2019-06-20T23:37:12.799Z,96677.95
2019-06-20T23:39:39.489Z,96671.03
2019-06-20T23:42:10.665Z,96672.36
2019-06-20T23:44:41.691Z,96672.09
2019-06-20T23:47:12.727Z,96674.51
2019-06-20T23:49:43.735Z,96672.09
2019-06-20T23:52:18.895Z,96678.24
2019-06-20T23:54:50.005Z,96671.53
2019-06-20T23:57:21.063Z,96674.20
2019-06-20T23:59:52.149Z,96678.76
